createdAt,value
2018-01-28T00:00:17.902Z,8.06
2018-01-28T00:01:17.900Z,8.08
2018-01-28T00:02:17.915Z,8.12
2018-01-28T00:03:17.937Z,8.08
2018-01-28T00:04:18.201Z,8.05
2018-01-28T00:05:18.209Z,8.09
2018-01-28T00:06:17.944Z,8.08
2018-01-28T00:07:18.018Z,8.06
2018-01-28T00:08:17.998Z,8.12
2018-01-28T00:09:18.295Z,8.08
2018-01-28T00:10:18.347Z,8.06
2018-01-28T00:11:18.038Z,8.03
2018-01-28T00:12:18.023Z,8.06
2018-01-28T00:13:17.808Z,8.05
2018-01-28T00:14:18.047Z,8.09
2018-01-28T00:15:18.094Z,8.06
2018-01-28T00:16:18.094Z,8.08
2018-01-28T00:17:17.835Z,8.05
2018-01-28T00:18:17.858Z,8.03
2018-01-28T00:19:18.462Z,8.15
2018-01-28T00:20:18.189Z,8.03
2018-01-28T00:21:18.176Z,8
2018-01-28T00:22:18.147Z,8.08
2018-01-28T00:23:17.904Z,8.03
2018-01-28T00:24:18.226Z,8.1
2018-01-28T00:25:18.511Z,8.05
2018-01-28T00:26:18.540Z,8.03
2018-01-28T00:27:17.966Z,8.01
2018-01-28T00:28:18.223Z,8.15
2018-01-28T00:29:18.301Z,8.05
2018-01-28T00:30:18.318Z,8
2018-01-28T00:31:18.286Z,8.05
2018-01-28T00:32:18.308Z,8.01
2018-01-28T00:33:18.607Z,8.05
2018-01-28T00:34:18.583Z,8.05
2018-01-28T00:35:18.365Z,8.05
2018-01-28T00:36:18.069Z,8.05
2018-01-28T00:37:18.697Z,8.03
2018-01-28T00:38:18.697Z,8.05
2018-01-28T00:39:18.365Z,8.06
2018-01-28T00:40:18.151Z,8.03
2018-01-28T00:41:18.715Z,8.03
2018-01-28T00:42:18.123Z,8.05
2018-01-28T00:43:18.728Z,7.98
2018-01-28T00:44:18.710Z,8
2018-01-28T00:45:18.477Z,8.06
2018-01-28T00:46:18.207Z,7.98
2018-01-28T00:47:18.653Z,8.19
2018-01-28T00:48:18.791Z,8.01
2018-01-28T00:49:18.512Z,8
2018-01-28T00:50:18.239Z,7.95
2018-01-28T00:51:18.859Z,8.01
2018-01-28T00:52:18.897Z,8.08
2018-01-28T00:53:18.566Z,7.98
2018-01-28T00:54:18.587Z,8
2018-01-28T00:55:18.623Z,8.01
2018-01-28T00:56:18.910Z,8.01
2018-01-28T00:57:18.604Z,8.03
2018-01-28T00:58:18.616Z,8.1
2018-01-28T00:59:18.962Z,8.01
2018-01-28T01:00:18.646Z,8.1
2018-01-28T01:01:18.798Z,8.06
2018-01-28T01:02:19.090Z,8.08
2018-01-28T01:03:18.741Z,8.06
2018-01-28T01:04:18.449Z,8.01
2018-01-28T01:05:18.696Z,8.08
2018-01-28T01:06:18.438Z,8.01
2018-01-28T01:07:18.757Z,8.12
2018-01-28T01:08:18.743Z,8.1
2018-01-28T01:09:19.069Z,8.03
2018-01-28T01:10:18.763Z,8.1
2018-01-28T01:11:18.776Z,8.1
2018-01-28T01:12:19.147Z,8.12
2018-01-28T01:13:19.114Z,8.1
2018-01-28T01:14:19.121Z,8.12
2018-01-28T01:15:18.885Z,8.09
2018-01-28T01:16:18.861Z,8.1
2018-01-28T01:17:18.889Z,8.1
2018-01-28T01:18:19.186Z,8.08
2018-01-28T01:19:19.171Z,8.08
2018-01-28T01:20:18.662Z,8.06
2018-01-28T01:21:19.232Z,8.15
2018-01-28T01:22:18.653Z,8.16
2018-01-28T01:23:18.655Z,8.12
2018-01-28T01:24:19.258Z,8.05
2018-01-28T01:25:18.691Z,8.09
2018-01-28T01:26:19.244Z,8.08
2018-01-28T01:27:19.292Z,8.09
2018-01-28T01:28:18.731Z,8.05
2018-01-28T01:29:18.777Z,8.06
2018-01-28T01:30:19.339Z,8.1
2018-01-28T01:31:19.382Z,8.09
2018-01-28T01:32:18.800Z,8.09
2018-01-28T01:33:18.817Z,8.1
2018-01-28T01:34:19.117Z,8.13
2018-01-28T01:35:19.120Z,8.06
2018-01-28T01:36:19.124Z,8.06
2018-01-28T01:37:20.206Z,8.09
2018-01-28T01:38:19.449Z,8.1
2018-01-28T01:39:19.409Z,8.1
2018-01-28T01:40:19.173Z,8.15
2018-01-28T01:41:18.908Z,8.08
2018-01-28T01:42:18.931Z,8.03
2018-01-28T01:43:19.225Z,8.06
2018-01-28T01:44:19.216Z,8.06
2018-01-28T01:45:19.526Z,8.05
2018-01-28T01:46:18.959Z,8.12
2018-01-28T01:47:19.294Z,8.09
2018-01-28T01:48:19.275Z,8.03
2018-01-28T01:49:19.267Z,8.08
2018-01-28T01:50:19.009Z,8.06
2018-01-28T01:51:19.289Z,8.13
2018-01-28T01:52:19.608Z,8.15
2018-01-28T01:53:19.362Z,8.08
2018-01-28T01:54:19.352Z,8.01
2018-01-28T01:55:19.333Z,8.08
2018-01-28T01:56:19.065Z,8.01
2018-01-28T01:57:19.718Z,8.09
2018-01-28T01:58:19.393Z,8.05
2018-01-28T01:59:19.384Z,8.06
2018-01-28T02:00:19.149Z,8.03
2018-01-28T02:01:19.446Z,8.09
2018-01-28T02:02:19.776Z,8.12
2018-01-28T02:03:19.185Z,8.12
2018-01-28T02:04:19.209Z,8.09
2018-01-28T02:05:19.845Z,8.13
2018-01-28T02:06:19.204Z,8.16
2018-01-28T02:07:19.828Z,8.13
2018-01-28T02:08:19.564Z,8.15
2018-01-28T02:09:19.837Z,8.16
2018-01-28T02:10:19.522Z,8.12
2018-01-28T02:11:19.598Z,8.08
2018-01-28T02:12:19.301Z,8.16
2018-01-28T02:13:19.566Z,8.12
2018-01-28T02:14:19.855Z,8.15
2018-01-28T02:15:19.352Z,8.12
2018-01-28T02:16:19.623Z,8.15
2018-01-28T02:17:19.334Z,8.12
2018-01-28T02:18:19.678Z,8.19
2018-01-28T02:19:19.694Z,8.15
2018-01-28T02:20:19.655Z,8.15
2018-01-28T02:21:19.942Z,8.15
2018-01-28T02:22:19.450Z,8.18
2018-01-28T02:23:19.443Z,8.15
2018-01-28T02:24:19.742Z,8.19
2018-01-28T02:25:19.747Z,8.18
2018-01-28T02:26:19.485Z,8.18
2018-01-28T02:27:19.783Z,8.16
2018-01-28T02:28:20.078Z,8.19
2018-01-28T02:29:19.810Z,8.19
2018-01-28T02:30:19.534Z,8.2
2018-01-28T02:31:19.826Z,8.2
2018-01-28T02:32:19.847Z,8.18
2018-01-28T02:33:19.873Z,8.19
2018-01-28T02:34:19.838Z,8.13
2018-01-28T02:35:19.870Z,8.19
2018-01-28T02:36:20.173Z,8.24
2018-01-28T02:37:19.620Z,8.18
2018-01-28T02:38:19.612Z,8.19
2018-01-28T02:39:19.928Z,8.2
2018-01-28T02:40:20.311Z,8.18
2018-01-28T02:41:19.958Z,8.19
2018-01-28T02:42:20.246Z,8.23
2018-01-28T02:43:19.668Z,8.24
2018-01-28T02:44:19.969Z,8.19
2018-01-28T02:45:19.980Z,8.13
2018-01-28T02:46:19.735Z,8.2
2018-01-28T02:47:20.041Z,8.24
2018-01-28T02:48:19.761Z,8.19
2018-01-28T02:49:20.080Z,8.18
2018-01-28T02:50:19.766Z,8.15
2018-01-28T02:51:20.080Z,8.12
2018-01-28T02:52:19.815Z,8.18
2018-01-28T02:53:20.127Z,8.18
2018-01-28T02:54:20.104Z,8.18
2018-01-28T02:55:20.134Z,8.2
2018-01-28T02:56:20.472Z,8.15
2018-01-28T02:57:20.126Z,8.16
2018-01-28T02:58:20.181Z,8.18
2018-01-28T02:59:20.495Z,8.19
2018-01-28T03:00:19.897Z,8.13
2018-01-28T03:01:19.926Z,8.16
2018-01-28T03:02:19.957Z,8.24
2018-01-28T03:03:20.242Z,8.2
2018-01-28T03:04:20.246Z,8.2
2018-01-28T03:05:20.262Z,8.19
2018-01-28T03:06:20.006Z,8.19
2018-01-28T03:07:20.549Z,8.18
2018-01-28T03:08:20.594Z,8.19
2018-01-28T03:09:20.067Z,8.18
2018-01-28T03:10:20.325Z,8.2
2018-01-28T03:11:20.357Z,8.19
2018-01-28T03:12:20.097Z,8.19
2018-01-28T03:13:20.341Z,8.2
2018-01-28T03:14:20.365Z,8.23
2018-01-28T03:15:20.365Z,8.18
2018-01-28T03:16:20.130Z,8.23
2018-01-28T03:17:20.669Z,8.16
2018-01-28T03:18:20.446Z,8.16
2018-01-28T03:19:20.728Z,8.18
2018-01-28T03:20:20.701Z,8.15
2018-01-28T03:21:20.242Z,8.19
2018-01-28T03:22:20.726Z,8.15
2018-01-28T03:23:20.489Z,8.13
2018-01-28T03:24:20.791Z,8.16
2018-01-28T03:25:20.225Z,8.16
2018-01-28T03:26:20.561Z,8.15
2018-01-28T03:27:20.274Z,8.18
2018-01-28T03:28:20.527Z,8.19
2018-01-28T03:29:20.566Z,8.19
2018-01-28T03:30:20.310Z,8.09
2018-01-28T03:31:20.816Z,8.16
2018-01-28T03:32:20.883Z,8.2
2018-01-28T03:33:20.954Z,8.2
2018-01-28T03:34:20.910Z,8.26
2018-01-28T03:35:20.621Z,8.19
2018-01-28T03:36:20.633Z,8.19
2018-01-28T03:37:20.988Z,8.16
2018-01-28T03:38:20.972Z,8.19
2018-01-28T03:39:20.693Z,8.2
2018-01-28T03:40:20.404Z,8.19
2018-01-28T03:41:20.717Z,8.13
2018-01-28T03:42:20.732Z,8.15
2018-01-28T03:43:20.812Z,8.18
2018-01-28T03:44:20.726Z,8.16
2018-01-28T03:45:20.740Z,8.23
2018-01-28T03:46:20.793Z,8.2
2018-01-28T03:47:20.482Z,8.27
2018-01-28T03:48:21.251Z,8.15
2018-01-28T03:49:21.115Z,8.19
2018-01-28T03:50:20.544Z,8.16
2018-01-28T03:51:20.839Z,8.15
2018-01-28T03:52:21.139Z,8.19
2018-01-28T03:53:21.164Z,8.1
2018-01-28T03:54:21.168Z,8.18
2018-01-28T03:55:20.628Z,8.24
2018-01-28T03:56:20.909Z,8.2
2018-01-28T03:57:20.924Z,8.2
2018-01-28T03:58:21.276Z,8.27
2018-01-28T03:59:20.960Z,8.23
2018-01-28T04:00:21.250Z,8.23
2018-01-28T04:01:20.965Z,8.26
2018-01-28T04:02:20.711Z,8.18
2018-01-28T04:03:20.710Z,8.23
2018-01-28T04:04:21.014Z,8.27
2018-01-28T04:05:21.333Z,8.2
2018-01-28T04:06:21.335Z,8.2
2018-01-28T04:07:20.781Z,8.28
2018-01-28T04:08:21.098Z,8.33
2018-01-28T04:09:21.079Z,8.26
2018-01-28T04:10:21.068Z,8.31
2018-01-28T04:11:21.429Z,8.2
2018-01-28T04:12:21.118Z,8.19
2018-01-28T04:13:21.173Z,8.28
2018-01-28T04:14:21.128Z,8.31
2018-01-28T04:15:21.186Z,8.34
2018-01-28T04:16:20.899Z,8.33
2018-01-28T04:17:21.159Z,8.38
2018-01-28T04:18:21.257Z,8.34
2018-01-28T04:19:21.494Z,8.38
2018-01-28T04:20:21.499Z,8.33
2018-01-28T04:21:21.207Z,8.33
2018-01-28T04:22:20.941Z,8.3
2018-01-28T04:23:21.258Z,8.34
2018-01-28T04:24:20.958Z,8.41
2018-01-28T04:25:21.002Z,8.33
2018-01-28T04:26:21.571Z,8.2
2018-01-28T04:27:21.295Z,8.31
2018-01-28T04:28:21.641Z,8.33
2018-01-28T04:29:21.309Z,8.41
2018-01-28T04:30:21.347Z,8.37
2018-01-28T04:31:21.336Z,8.3
2018-01-28T04:32:21.695Z,8.37
2018-01-28T04:33:21.174Z,8.33
2018-01-28T04:34:21.372Z,8.36
2018-01-28T04:35:21.690Z,8.37
2018-01-28T04:36:21.121Z,8.33
2018-01-28T04:37:21.421Z,8.3
2018-01-28T04:38:21.508Z,8.31
2018-01-28T04:39:21.742Z,8.37
2018-01-28T04:40:21.730Z,8.33
2018-01-28T04:41:21.484Z,8.3
2018-01-28T04:42:21.520Z,8.31
2018-01-28T04:43:21.479Z,8.3
2018-01-28T04:44:21.528Z,8.36
2018-01-28T04:45:21.516Z,8.33
2018-01-28T04:46:21.544Z,8.37
2018-01-28T04:47:21.283Z,8.36
2018-01-28T04:48:21.277Z,8.37
2018-01-28T04:49:21.578Z,8.34
2018-01-28T04:50:21.633Z,8.38
2018-01-28T04:51:21.334Z,8.31
2018-01-28T04:52:21.594Z,8.34
2018-01-28T04:53:21.348Z,8.37
2018-01-28T04:54:21.726Z,8.33
2018-01-28T04:55:21.375Z,8.34
2018-01-28T04:56:21.375Z,8.33
2018-01-28T04:57:21.722Z,8.34
2018-01-28T04:58:22.022Z,8.34
2018-01-28T04:59:22.040Z,8.44
2018-01-28T05:00:21.761Z,8.44
2018-01-28T05:01:21.429Z,8.42
2018-01-28T05:02:21.788Z,8.46
2018-01-28T05:03:21.737Z,8.37
2018-01-28T05:04:22.029Z,8.45
2018-01-28T05:05:21.501Z,8.46
2018-01-28T05:06:22.062Z,8.42
2018-01-28T05:07:21.787Z,8.44
2018-01-28T05:08:22.080Z,8.44
2018-01-28T05:09:21.835Z,8.48
2018-01-28T05:10:22.119Z,8.48
2018-01-28T05:11:22.178Z,8.42
2018-01-28T05:12:21.884Z,8.37
2018-01-28T05:13:21.902Z,8.42
2018-01-28T05:14:21.628Z,8.44
2018-01-28T05:15:22.178Z,8.44
2018-01-28T05:16:21.674Z,8.46
2018-01-28T05:17:21.926Z,8.42
2018-01-28T05:18:21.989Z,8.45
2018-01-28T05:19:22.296Z,8.51
2018-01-28T05:20:22.009Z,8.51
2018-01-28T05:21:21.971Z,8.48
2018-01-28T05:22:22.006Z,8.53
2018-01-28T05:23:22.023Z,8.46
2018-01-28T05:24:22.530Z,8.52
2018-01-28T05:25:22.054Z,8.49
2018-01-28T05:26:21.785Z,8.46
2018-01-28T05:27:21.797Z,8.51
2018-01-28T05:28:21.780Z,8.53
2018-01-28T05:29:22.349Z,8.55
2018-01-28T05:30:22.116Z,8.49
2018-01-28T05:31:21.868Z,8.51
2018-01-28T05:32:22.431Z,8.49
2018-01-28T05:33:22.143Z,8.44
2018-01-28T05:34:22.205Z,8.49
2018-01-28T05:35:22.178Z,8.53
2018-01-28T05:36:22.480Z,8.51
2018-01-28T05:37:22.525Z,8.53
2018-01-28T05:38:22.466Z,8.49
2018-01-28T05:39:22.561Z,8.52
2018-01-28T05:40:22.493Z,8.51
2018-01-28T05:41:22.257Z,8.51
2018-01-28T05:42:22.596Z,8.49
2018-01-28T05:43:21.980Z,8.52
2018-01-28T05:44:22.067Z,8.48
2018-01-28T05:45:22.331Z,8.6
2018-01-28T05:46:22.616Z,8.48
2018-01-28T05:47:22.075Z,8.52
2018-01-28T05:48:22.346Z,8.51
2018-01-28T05:49:22.689Z,8.53
2018-01-28T05:50:22.387Z,8.56
2018-01-28T05:51:22.637Z,8.52
2018-01-28T05:52:22.099Z,8.52
2018-01-28T05:53:22.155Z,8.48
2018-01-28T05:54:22.429Z,8.55
2018-01-28T05:55:22.740Z,8.55
2018-01-28T05:56:22.149Z,8.64
2018-01-28T05:57:22.522Z,8.56
2018-01-28T05:58:22.776Z,8.52
2018-01-28T05:59:22.479Z,8.49
2018-01-28T06:00:22.816Z,8.58
2018-01-28T06:01:22.515Z,8.49
2018-01-28T06:02:22.238Z,8.49
2018-01-28T06:03:22.575Z,8.51
2018-01-28T06:04:22.833Z,8.48
2018-01-28T06:05:22.633Z,8.56
2018-01-28T06:06:22.952Z,8.56
2018-01-28T06:07:22.604Z,8.58
2018-01-28T06:08:22.316Z,8.56
2018-01-28T06:09:22.585Z,8.51
2018-01-28T06:10:22.920Z,8.64
2018-01-28T06:11:22.639Z,8.52
2018-01-28T06:12:22.379Z,8.52
2018-01-28T06:13:22.403Z,8.49
2018-01-28T06:14:22.863Z,8.55
2018-01-28T06:15:22.714Z,8.63
2018-01-28T06:16:22.410Z,8.55
2018-01-28T06:17:22.695Z,8.52
2018-01-28T06:18:22.755Z,8.58
2018-01-28T06:19:22.743Z,8.55
2018-01-28T06:20:22.765Z,8.49
2018-01-28T06:21:22.795Z,8.6
2018-01-28T06:22:22.778Z,8.64
2018-01-28T06:23:22.768Z,8.56
2018-01-28T06:24:22.783Z,8.52
2018-01-28T06:25:23.203Z,8.55
2018-01-28T06:26:22.551Z,8.52
2018-01-28T06:27:22.563Z,8.51
2018-01-28T06:28:22.834Z,8.48
2018-01-28T06:29:22.900Z,8.51
2018-01-28T06:30:22.633Z,8.55
2018-01-28T06:31:23.259Z,8.52
2018-01-28T06:32:22.941Z,8.56
2018-01-28T06:33:22.900Z,8.53
2018-01-28T06:34:22.932Z,8.55
2018-01-28T06:35:23.326Z,8.55
2018-01-28T06:36:22.938Z,8.6
2018-01-28T06:37:22.986Z,8.52
2018-01-28T06:38:22.987Z,8.51
2018-01-28T06:39:22.718Z,8.53
2018-01-28T06:40:23.023Z,8.6
2018-01-28T06:41:23.014Z,8.61
2018-01-28T06:42:22.753Z,8.52
2018-01-28T06:43:23.318Z,8.52
2018-01-28T06:44:23.086Z,8.64
2018-01-28T06:45:23.055Z,8.52
2018-01-28T06:46:23.132Z,8.51
2018-01-28T06:47:23.137Z,8.53
2018-01-28T06:48:23.120Z,8.51
2018-01-28T06:49:23.141Z,8.58
2018-01-28T06:50:23.436Z,8.51
2018-01-28T06:51:23.888Z,8.52
2018-01-28T06:52:23.159Z,8.55
2018-01-28T06:53:23.170Z,8.51
2018-01-28T06:54:23.230Z,8.55
2018-01-28T06:55:22.936Z,8.58
2018-01-28T06:56:23.226Z,8.52
2018-01-28T06:57:23.505Z,8.56
2018-01-28T06:58:23.537Z,8.53
2018-01-28T06:59:23.291Z,8.56
2018-01-28T07:00:23.622Z,8.58
2018-01-28T07:01:23.293Z,8.61
2018-01-28T07:02:23.378Z,8.66
2018-01-28T07:03:23.301Z,8.6
2018-01-28T07:04:23.347Z,8.61
2018-01-28T07:05:23.350Z,8.56
2018-01-28T07:06:23.390Z,8.55
2018-01-28T07:07:23.093Z,8.61
2018-01-28T07:08:23.117Z,8.61
2018-01-28T07:09:23.691Z,8.67
2018-01-28T07:10:23.787Z,8.64
2018-01-28T07:11:23.147Z,8.7
2018-01-28T07:12:23.408Z,8.71
2018-01-28T07:13:23.486Z,8.64
2018-01-28T07:14:23.207Z,8.7
2018-01-28T07:15:23.540Z,8.69
2018-01-28T07:16:23.472Z,8.69
2018-01-28T07:17:23.470Z,8.71
2018-01-28T07:18:23.521Z,8.73
2018-01-28T07:19:23.223Z,8.67
2018-01-28T07:20:23.286Z,8.69
2018-01-28T07:21:23.592Z,8.71
2018-01-28T07:22:23.536Z,8.67
2018-01-28T07:23:23.615Z,8.7
2018-01-28T07:24:23.306Z,8.69
2018-01-28T07:25:23.664Z,8.73
2018-01-28T07:26:23.341Z,8.67
2018-01-28T07:27:23.618Z,8.67
2018-01-28T07:28:23.678Z,8.67
2018-01-28T07:29:23.945Z,8.67
2018-01-28T07:30:24.008Z,8.71
2018-01-28T07:31:23.666Z,8.7
2018-01-28T07:32:23.671Z,8.74
2018-01-28T07:33:23.692Z,8.7
2018-01-28T07:34:24.005Z,8.69
2018-01-28T07:35:23.508Z,8.7
2018-01-28T07:36:23.767Z,8.73
2018-01-28T07:37:23.778Z,8.69
2018-01-28T07:38:23.779Z,8.76
2018-01-28T07:39:24.071Z,8.76
2018-01-28T07:40:24.091Z,8.81
2018-01-28T07:41:23.828Z,8.7
2018-01-28T07:42:23.824Z,8.82
2018-01-28T07:43:23.814Z,8.85
2018-01-28T07:44:23.849Z,8.87
2018-01-28T07:45:23.894Z,8.71
2018-01-28T07:46:24.143Z,8.76
2018-01-28T07:47:23.896Z,8.78
2018-01-28T07:48:23.597Z,8.76
2018-01-28T07:49:23.642Z,8.78
2018-01-28T07:50:23.925Z,8.76
2018-01-28T07:51:23.950Z,8.85
2018-01-28T07:52:23.960Z,8.79
2018-01-28T07:53:24.237Z,8.84
2018-01-28T07:54:24.007Z,8.82
2018-01-28T07:55:23.693Z,8.84
2018-01-28T07:56:24.306Z,8.94
2018-01-28T07:57:23.748Z,8.78
2018-01-28T07:58:24.059Z,8.81
2018-01-28T07:59:24.332Z,8.89
2018-01-28T08:00:24.536Z,8.95
2018-01-28T08:01:24.085Z,8.88
2018-01-28T08:02:24.415Z,8.95
2018-01-28T08:03:24.126Z,8.87
2018-01-28T08:04:24.437Z,8.88
2018-01-28T08:05:23.885Z,8.95
2018-01-28T08:06:24.468Z,8.92
2018-01-28T08:07:23.881Z,8.97
2018-01-28T08:08:24.421Z,8.91
2018-01-28T08:09:24.507Z,8.95
2018-01-28T08:10:24.492Z,9.03
2018-01-28T08:11:23.937Z,8.99
2018-01-28T08:12:23.965Z,8.95
2018-01-28T08:13:24.563Z,8.91
2018-01-28T08:14:24.257Z,9
2018-01-28T08:15:24.609Z,8.99
2018-01-28T08:16:24.307Z,8.97
2018-01-28T08:17:24.270Z,9.04
2018-01-28T08:18:24.314Z,9
2018-01-28T08:19:24.637Z,9.06
2018-01-28T08:20:24.647Z,8.97
2018-01-28T08:21:24.364Z,9
2018-01-28T08:22:24.066Z,9.03
2018-01-28T08:23:24.659Z,9.04
2018-01-28T08:24:24.399Z,9.03
2018-01-28T08:25:24.559Z,9.06
2018-01-28T08:26:24.419Z,9.06
2018-01-28T08:27:24.423Z,9.1
2018-01-28T08:28:24.145Z,9.21
2018-01-28T08:29:24.194Z,9.16
2018-01-28T08:30:24.226Z,9.14
2018-01-28T08:31:24.770Z,9.18
2018-01-28T08:32:24.754Z,9.23
2018-01-28T08:33:24.851Z,9.14
2018-01-28T08:34:24.534Z,9.14
2018-01-28T08:35:24.583Z,9.16
2018-01-28T08:36:24.515Z,9.22
2018-01-28T08:37:24.595Z,9.23
2018-01-28T08:38:24.608Z,9.25
2018-01-28T08:39:24.585Z,9.32
2018-01-28T08:40:24.921Z,9.31
2018-01-28T08:41:24.322Z,9.23
2018-01-28T08:42:24.633Z,9.28
2018-01-28T08:43:24.382Z,9.34
2018-01-28T08:44:24.942Z,9.37
2018-01-28T08:45:24.394Z,9.32
2018-01-28T08:46:24.716Z,9.34
2018-01-28T08:47:25.002Z,9.4
2018-01-28T08:48:25.000Z,9.4
2018-01-28T08:49:24.462Z,9.39
2018-01-28T08:50:24.732Z,9.46
2018-01-28T08:51:24.714Z,9.43
2018-01-28T08:52:24.469Z,9.44
2018-01-28T08:53:24.761Z,9.41
2018-01-28T08:54:25.049Z,9.43
2018-01-28T08:55:25.058Z,9.44
2018-01-28T08:56:25.066Z,9.55
2018-01-28T08:57:24.559Z,9.5
2018-01-28T08:58:25.131Z,9.48
2018-01-28T08:59:25.180Z,9.56
2018-01-28T09:00:24.838Z,9.62
2018-01-28T09:01:24.580Z,9.56
2018-01-28T09:02:24.864Z,9.59
2018-01-28T09:03:24.639Z,9.64
2018-01-28T09:04:24.922Z,9.72
2018-01-28T09:05:24.916Z,9.66
2018-01-28T09:06:25.240Z,9.68
2018-01-28T09:07:24.943Z,9.79
2018-01-28T09:08:24.999Z,9.77
2018-01-28T09:09:25.012Z,9.66
2018-01-28T09:10:24.700Z,9.84
2018-01-28T09:11:25.298Z,9.64
2018-01-28T09:12:25.310Z,9.76
2018-01-28T09:13:25.047Z,9.76
2018-01-28T09:14:24.776Z,9.74
2018-01-28T09:15:25.093Z,9.8
2018-01-28T09:16:25.119Z,9.82
2018-01-28T09:17:25.380Z,9.84
2018-01-28T09:18:25.124Z,9.89
2018-01-28T09:19:25.439Z,9.83
2018-01-28T09:20:25.455Z,9.89
2018-01-28T09:21:25.164Z,9.91
2018-01-28T09:22:25.148Z,9.97
2018-01-28T09:23:25.170Z,9.94
2018-01-28T09:24:25.458Z,9.94
2018-01-28T09:25:25.494Z,9.89
2018-01-28T09:26:25.548Z,9.92
2018-01-28T09:27:24.925Z,9.89
2018-01-28T09:28:24.978Z,9.83
2018-01-28T09:29:25.260Z,9.94
2018-01-28T09:30:25.272Z,9.92
2018-01-28T09:31:25.293Z,9.89
2018-01-28T09:32:25.631Z,9.92
2018-01-28T09:33:25.609Z,9.92
2018-01-28T09:34:25.353Z,9.87
2018-01-28T09:35:25.379Z,9.98
2018-01-28T09:36:25.071Z,9.95
2018-01-28T09:37:25.075Z,9.95
2018-01-28T09:38:25.389Z,9.94
2018-01-28T09:39:25.693Z,9.99
2018-01-28T09:40:25.414Z,10.02
2018-01-28T09:41:25.743Z,10.02
2018-01-28T09:42:25.455Z,9.99
2018-01-28T09:43:25.497Z,10.09
2018-01-28T09:44:25.798Z,10.16
2018-01-28T09:45:25.510Z,10.09
2018-01-28T09:46:25.523Z,10.15
2018-01-28T09:47:25.494Z,10.15
2018-01-28T09:48:25.240Z,10.07
2018-01-28T09:49:25.796Z,10.2
2018-01-28T09:50:25.582Z,10.09
2018-01-28T09:51:25.342Z,10.09
2018-01-28T09:52:25.848Z,10.12
2018-01-28T09:53:25.597Z,10.12
2018-01-28T09:54:25.648Z,10.12
2018-01-28T09:55:25.617Z,10.17
2018-01-28T09:56:25.961Z,10.16
2018-01-28T09:57:25.656Z,10.25
2018-01-28T09:58:25.672Z,10.26
2018-01-28T09:59:25.989Z,10.22
2018-01-28T10:00:25.751Z,10.28
2018-01-28T10:01:25.745Z,10.26
2018-01-28T10:02:25.448Z,10.34
2018-01-28T10:03:25.430Z,10.33
2018-01-28T10:04:25.764Z,10.3
2018-01-28T10:05:26.050Z,10.25
2018-01-28T10:06:25.785Z,10.33
2018-01-28T10:07:26.058Z,10.28
2018-01-28T10:08:25.792Z,10.37
2018-01-28T10:09:25.527Z,10.4
2018-01-28T10:10:25.810Z,10.37
2018-01-28T10:11:25.934Z,10.38
2018-01-28T10:12:25.582Z,10.42
2018-01-28T10:13:25.890Z,10.41
2018-01-28T10:14:25.868Z,10.44
2018-01-28T10:15:25.883Z,10.37
2018-01-28T10:16:25.906Z,10.46
2018-01-28T10:17:25.942Z,10.51
2018-01-28T10:18:25.941Z,10.54
2018-01-28T10:19:26.293Z,10.56
2018-01-28T10:20:26.006Z,10.53
2018-01-28T10:21:25.992Z,10.6
2018-01-28T10:22:26.092Z,10.56
2018-01-28T10:23:26.061Z,10.6
2018-01-28T10:24:25.752Z,10.63
2018-01-28T10:25:26.058Z,10.61
2018-01-28T10:26:26.416Z,10.64
2018-01-28T10:27:26.373Z,10.64
2018-01-28T10:28:26.082Z,10.68
2018-01-28T10:29:26.137Z,10.67
2018-01-28T10:30:26.133Z,10.68
2018-01-28T10:31:26.156Z,10.63
2018-01-28T10:32:26.687Z,10.61
2018-01-28T10:33:26.473Z,10.72
2018-01-28T10:34:26.469Z,10.69
2018-01-28T10:35:26.170Z,10.68
2018-01-28T10:36:25.929Z,10.67
2018-01-28T10:37:26.232Z,10.68
2018-01-28T10:38:26.505Z,10.67
2018-01-28T10:39:26.252Z,10.64
2018-01-28T10:40:26.289Z,10.6
2018-01-28T10:41:26.260Z,10.68
2018-01-28T10:42:26.305Z,10.72
2018-01-28T10:43:26.642Z,10.67
2018-01-28T10:44:26.656Z,10.61
2018-01-28T10:45:26.375Z,10.69
2018-01-28T10:46:26.462Z,10.64
2018-01-28T10:47:26.402Z,10.64
2018-01-28T10:48:26.381Z,10.64
2018-01-28T10:49:26.386Z,10.61
2018-01-28T10:50:26.747Z,10.67
2018-01-28T10:51:26.806Z,10.64
2018-01-28T10:52:26.759Z,10.63
2018-01-28T10:53:26.791Z,10.67
2018-01-28T10:54:26.169Z,10.63
2018-01-28T10:55:26.476Z,10.6
2018-01-28T10:56:26.530Z,10.67
2018-01-28T10:57:26.860Z,10.6
2018-01-28T10:58:26.249Z,10.56
2018-01-28T10:59:26.296Z,10.6
2018-01-28T11:00:26.603Z,10.64
2018-01-28T11:01:26.584Z,10.53
2018-01-28T11:02:26.317Z,10.6
2018-01-28T11:03:26.647Z,10.61
2018-01-28T11:04:26.628Z,10.6
2018-01-28T11:05:26.661Z,10.53
2018-01-28T11:06:26.368Z,10.54
2018-01-28T11:07:26.642Z,10.6
2018-01-28T11:08:26.977Z,10.53
2018-01-28T11:09:26.710Z,10.54
2018-01-28T11:10:27.187Z,10.56
2018-01-28T11:11:26.773Z,10.53
2018-01-28T11:12:26.992Z,10.57
2018-01-28T11:13:26.502Z,10.57
2018-01-28T11:14:26.462Z,10.54
2018-01-28T11:15:26.511Z,10.51
2018-01-28T11:16:26.815Z,10.56
2018-01-28T11:17:26.799Z,10.51
2018-01-28T11:18:26.819Z,10.53
2018-01-28T11:19:26.854Z,10.54
2018-01-28T11:20:26.874Z,10.53
2018-01-28T11:21:26.885Z,10.53
2018-01-28T11:22:27.179Z,10.46
2018-01-28T11:23:26.601Z,10.53
2018-01-28T11:24:26.930Z,10.51
2018-01-28T11:25:27.225Z,10.49
2018-01-28T11:26:26.965Z,10.4
2018-01-28T11:27:27.277Z,10.46
2018-01-28T11:28:27.300Z,10.42
2018-01-28T11:29:27.025Z,10.44
2018-01-28T11:30:26.729Z,10.41
2018-01-28T11:31:27.403Z,10.42
2018-01-28T11:32:27.010Z,10.44
2018-01-28T11:33:27.088Z,10.37
2018-01-28T11:34:27.092Z,10.4
2018-01-28T11:35:27.072Z,10.44
2018-01-28T11:36:27.373Z,10.42
2018-01-28T11:37:27.014Z,10.4
2018-01-28T11:38:26.838Z,10.4
2018-01-28T11:39:26.830Z,10.42
2018-01-28T11:40:27.484Z,10.4
2018-01-28T11:41:27.169Z,10.37
2018-01-28T11:42:27.434Z,10.4
2018-01-28T11:43:27.519Z,10.41
2018-01-28T11:44:27.181Z,10.4
2018-01-28T11:45:27.216Z,10.37
2018-01-28T11:46:27.562Z,10.37
2018-01-28T11:47:27.577Z,10.44
2018-01-28T11:48:27.550Z,10.37
2018-01-28T11:49:27.331Z,10.33
2018-01-28T11:50:27.584Z,10.38
2018-01-28T11:51:27.040Z,10.37
2018-01-28T11:52:27.576Z,10.31
2018-01-28T11:53:27.602Z,10.38
2018-01-28T11:54:27.363Z,10.38
2018-01-28T11:55:27.625Z,10.37
2018-01-28T11:56:27.417Z,10.34
2018-01-28T11:57:27.128Z,10.44
2018-01-28T11:58:27.125Z,10.3
2018-01-28T11:59:27.134Z,10.41
2018-01-28T12:00:27.436Z,10.28
2018-01-28T12:01:27.472Z,10.34
2018-01-28T12:02:27.492Z,10.28
2018-01-28T12:03:27.522Z,10.31
2018-01-28T12:04:27.503Z,10.35
2018-01-28T12:05:27.249Z,10.4
2018-01-28T12:06:27.856Z,10.31
2018-01-28T12:07:27.250Z,10.31
2018-01-28T12:08:27.283Z,10.4
2018-01-28T12:09:27.616Z,10.37
2018-01-28T12:10:27.282Z,10.35
2018-01-28T12:11:27.597Z,10.33
2018-01-28T12:12:27.632Z,10.37
2018-01-28T12:13:27.628Z,10.35
2018-01-28T12:14:27.615Z,10.4
2018-01-28T12:15:27.667Z,10.37
2018-01-28T12:16:27.710Z,10.38
2018-01-28T12:17:28.012Z,10.31
2018-01-28T12:18:27.980Z,10.37
2018-01-28T12:19:27.756Z,10.34
2018-01-28T12:20:27.425Z,10.35
2018-01-28T12:21:27.774Z,10.4
2018-01-28T12:22:28.053Z,10.34
2018-01-28T12:23:27.793Z,10.37
2018-01-28T12:24:27.505Z,10.34
2018-01-28T12:25:27.809Z,10.31
2018-01-28T12:26:28.104Z,10.37
2018-01-28T12:27:27.573Z,10.35
2018-01-28T12:28:27.872Z,10.38
2018-01-28T12:29:27.558Z,10.41
2018-01-28T12:30:27.583Z,10.41
2018-01-28T12:31:27.899Z,10.37
2018-01-28T12:32:27.914Z,10.38
2018-01-28T12:33:27.919Z,10.48
2018-01-28T12:34:27.942Z,10.4
2018-01-28T12:35:27.935Z,10.37
2018-01-28T12:36:27.961Z,10.42
2018-01-28T12:37:27.694Z,10.4
2018-01-28T12:38:28.015Z,10.34
2018-01-28T12:39:28.267Z,10.41
2018-01-28T12:40:28.018Z,10.37
2018-01-28T12:41:28.022Z,10.37
2018-01-28T12:42:27.829Z,10.4
2018-01-28T12:43:28.366Z,10.4
2018-01-28T12:44:28.099Z,10.46
2018-01-28T12:45:28.351Z,10.48
2018-01-28T12:46:27.804Z,10.42
2018-01-28T12:47:28.170Z,10.46
2018-01-28T12:48:28.112Z,10.4
2018-01-28T12:49:28.146Z,10.37
2018-01-28T12:50:28.463Z,10.38
2018-01-28T12:51:27.909Z,10.41
2018-01-28T12:52:28.684Z,10.38
2018-01-28T12:53:28.198Z,10.48
2018-01-28T12:54:28.555Z,10.37
2018-01-28T12:55:28.539Z,10.44
2018-01-28T12:56:28.544Z,10.38
2018-01-28T12:57:28.119Z,10.4
2018-01-28T12:58:28.024Z,10.38
2018-01-28T12:59:28.015Z,10.4
2018-01-28T13:00:28.050Z,10.34
2018-01-28T13:01:28.346Z,10.35
2018-01-28T13:02:28.402Z,10.4
2018-01-28T13:03:28.376Z,10.37
2018-01-28T13:04:28.409Z,10.42
2018-01-28T13:05:28.715Z,10.41
2018-01-28T13:06:28.410Z,10.42
2018-01-28T13:07:28.440Z,10.44
2018-01-28T13:08:28.409Z,10.38
2018-01-28T13:09:28.452Z,10.41
2018-01-28T13:10:28.783Z,10.41
2018-01-28T13:11:28.772Z,10.34
2018-01-28T13:12:28.234Z,10.41
2018-01-28T13:13:28.209Z,10.4
2018-01-28T13:14:28.786Z,10.42
2018-01-28T13:15:28.563Z,10.38